sensor_id;sensor_type;location;lat;lon;timestamp;pressure;altitude;pressure_sealevel;temperature;humidity
12215;BME280;6170;42.206;24.142;2023-05-22T00:00:52;98468.47;;;17.23;82.50
12215;BME280;6170;42.206;24.142;2023-05-22T00:03:19;98467.72;;;17.28;82.61
12215;BME280;6170;42.206;24.142;2023-05-22T00:05:50;98469.72;;;17.37;82.40
12215;BME280;6170;42.206;24.142;2023-05-22T00:08:17;98461.53;;;17.32;82.80
12215;BME280;6170;42.206;24.142;2023-05-22T00:10:44;98454.44;;;17.26;83.04
12215;BME280;6170;42.206;24.142;2023-05-22T00:13:11;98458.38;;;17.40;82.80
12215;BME280;6170;42.206;24.142;2023-05-22T00:15:38;98438.19;;;17.26;82.28
12215;BME280;6170;42.206;24.142;2023-05-22T00:18:05;98454.84;;;17.40;81.80
12215;BME280;6170;42.206;24.142;2023-05-22T00:20:32;98453.25;;;17.39;80.90
12215;BME280;6170;42.206;24.142;2023-05-22T00:23:04;98460.13;;;17.25;79.63
12215;BME280;6170;42.206;24.142;2023-05-22T00:25:34;98446.28;;;17.21;78.51
12215;BME280;6170;42.206;24.142;2023-05-22T00:28:01;98450.59;;;17.22;78.25
12215;BME280;6170;42.206;24.142;2023-05-22T00:30:28;98452.53;;;16.83;78.91
12215;BME280;6170;42.206;24.142;2023-05-22T00:32:55;98450.50;;;17.12;78.53
12215;BME280;6170;42.206;24.142;2023-05-22T00:35:22;98439.28;;;17.03;78.46
12215;BME280;6170;42.206;24.142;2023-05-22T00:37:49;98444.31;;;17.17;77.82
12215;BME280;6170;42.206;24.142;2023-05-22T00:40:17;98437.75;;;16.91;78.47
12215;BME280;6170;42.206;24.142;2023-05-22T00:42:44;98446.81;;;17.01;78.78
12215;BME280;6170;42.206;24.142;2023-05-22T00:45:12;98499.09;;;17.24;78.65
12215;BME280;6170;42.206;24.142;2023-05-22T00:47:40;98450.34;;;16.80;78.88
12215;BME280;6170;42.206;24.142;2023-05-22T00:50:09;98449.00;;;16.83;78.18
12215;BME280;6170;42.206;24.142;2023-05-22T00:52:39;98452.75;;;16.98;77.69
12215;BME280;6170;42.206;24.142;2023-05-22T00:55:07;98450.34;;;16.80;78.59
12215;BME280;6170;42.206;24.142;2023-05-22T00:57:37;98454.13;;;17.01;77.84
12215;BME280;6170;42.206;24.142;2023-05-22T01:00:05;98447.00;;;16.56;78.79
12215;BME280;6170;42.206;24.142;2023-05-22T01:02:35;98448.06;;;16.72;78.07
12215;BME280;6170;42.206;24.142;2023-05-22T01:05:02;98447.81;;;16.57;79.13
12215;BME280;6170;42.206;24.142;2023-05-22T01:07:31;98442.09;;;16.70;78.91
12215;BME280;6170;42.206;24.142;2023-05-22T01:09:58;98426.88;;;16.86;78.37
12215;BME280;6170;42.206;24.142;2023-05-22T01:12:30;98433.66;;;16.88;77.94
12215;BME280;6170;42.206;24.142;2023-05-22T01:15:07;98442.69;;;16.94;77.77
12215;BME280;6170;42.206;24.142;2023-05-22T01:17:41;98425.09;;;16.75;78.11
12215;BME280;6170;42.206;24.142;2023-05-22T01:20:17;98437.72;;;16.69;77.84
12215;BME280;6170;42.206;24.142;2023-05-22T01:23:31;98444.66;;;16.43;79.38
12215;BME280;6170;42.206;24.142;2023-05-22T01:26:11;98444.47;;;16.33;79.93
12215;BME280;6170;42.206;24.142;2023-05-22T01:29:21;98435.66;;;16.21;80.80
12215;BME280;6170;42.206;24.142;2023-05-22T01:31:56;98446.63;;;15.98;82.06
12215;BME280;6170;42.206;24.142;2023-05-22T01:34:25;98442.88;;;15.99;82.40
12215;BME280;6170;42.206;24.142;2023-05-22T01:36:54;98443.59;;;15.94;82.99
12215;BME280;6170;42.206;24.142;2023-05-22T01:39:22;98447.78;;;16.02;83.22
12215;BME280;6170;42.206;24.142;2023-05-22T01:41:50;98441.88;;;16.05;83.33
12215;BME280;6170;42.206;24.142;2023-05-22T01:44:17;98440.16;;;15.82;83.93
12215;BME280;6170;42.206;24.142;2023-05-22T01:46:44;98443.91;;;15.98;83.66
12215;BME280;6170;42.206;24.142;2023-05-22T01:49:12;98452.75;;;15.93;83.60
12215;BME280;6170;42.206;24.142;2023-05-22T01:51:48;98449.69;;;16.01;83.86
12215;BME280;6170;42.206;24.142;2023-05-22T01:54:23;98431.09;;;15.88;84.60
12215;BME280;6170;42.206;24.142;2023-05-22T01:56:54;98441.56;;;16.01;84.45
12215;BME280;6170;42.206;24.142;2023-05-22T01:59:35;98438.53;;;16.14;83.55
12215;BME280;6170;42.206;24.142;2023-05-22T02:02:06;98441.38;;;16.08;84.96
12215;BME280;6170;42.206;24.142;2023-05-22T02:04:38;98433.09;;;15.98;85.36
12215;BME280;6170;42.206;24.142;2023-05-22T02:07:05;98438.28;;;16.16;84.62
12215;BME280;6170;42.206;24.142;2023-05-22T02:09:34;98433.53;;;16.23;85.08
12215;BME280;6170;42.206;24.142;2023-05-22T02:12:01;98450.81;;;16.22;84.91
12215;BME280;6170;42.206;24.142;2023-05-22T02:14:28;98440.81;;;16.23;84.33
12215;BME280;6170;42.206;24.142;2023-05-22T02:16:55;98453.03;;;16.08;82.64
12215;BME280;6170;42.206;24.142;2023-05-22T02:19:22;98452.03;;;16.31;82.82
12215;BME280;6170;42.206;24.142;2023-05-22T02:21:51;98453.28;;;16.24;82.03
12215;BME280;6170;42.206;24.142;2023-05-22T02:24:18;98460.31;;;16.25;82.58
12215;BME280;6170;42.206;24.142;2023-05-22T02:26:45;98455.97;;;16.24;81.46
12215;BME280;6170;42.206;24.142;2023-05-22T02:29:13;98447.53;;;16.20;81.75
12215;BME280;6170;42.206;24.142;2023-05-22T02:31:40;98453.41;;;16.50;81.21
12215;BME280;6170;42.206;24.142;2023-05-22T02:34:06;98441.44;;;16.46;80.51
12215;BME280;6170;42.206;24.142;2023-05-22T02:36:33;98457.81;;;16.56;79.89
12215;BME280;6170;42.206;24.142;2023-05-22T02:39:03;98463.41;;;16.50;80.58
12215;BME280;6170;42.206;24.142;2023-05-22T02:41:30;98511.53;;;16.81;80.11
12215;BME280;6170;42.206;24.142;2023-05-22T02:43:57;98463.16;;;16.68;79.83
12215;BME280;6170;42.206;24.142;2023-05-22T02:46:24;98463.81;;;16.75;80.27
12215;BME280;6170;42.206;24.142;2023-05-22T02:48:51;98452.59;;;16.50;81.05
12215;BME280;6170;42.206;24.142;2023-05-22T02:51:18;98461.59;;;16.55;80.90
12215;BME280;6170;42.206;24.142;2023-05-22T02:53:44;98460.78;;;16.55;81.96
12215;BME280;6170;42.206;24.142;2023-05-22T02:56:13;98473.16;;;16.51;82.36
12215;BME280;6170;42.206;24.142;2023-05-22T02:58:40;98469.13;;;16.53;82.21
12215;BME280;6170;42.206;24.142;2023-05-22T03:01:07;98473.72;;;16.53;82.47
12215;BME280;6170;42.206;24.142;2023-05-22T03:03:34;98467.75;;;16.34;83.02
12215;BME280;6170;42.206;24.142;2023-05-22T03:06:02;98466.53;;;16.25;84.17
12215;BME280;6170;42.206;24.142;2023-05-22T03:08:29;98468.69;;;16.23;84.70
12215;BME280;6170;42.206;24.142;2023-05-22T03:10:57;98471.28;;;16.35;84.24
12215;BME280;6170;42.206;24.142;2023-05-22T03:13:26;98469.00;;;16.10;85.44
12215;BME280;6170;42.206;24.142;2023-05-22T03:15:53;98477.34;;;16.25;84.79
12215;BME280;6170;42.206;24.142;2023-05-22T03:18:20;98472.53;;;16.27;84.42
12215;BME280;6170;42.206;24.142;2023-05-22T03:20:47;98476.19;;;16.21;85.25
12215;BME280;6170;42.206;24.142;2023-05-22T03:23:14;98470.06;;;16.26;84.70
12215;BME280;6170;42.206;24.142;2023-05-22T03:25:41;98462.22;;;16.24;83.93
12215;BME280;6170;42.206;24.142;2023-05-22T03:28:08;98473.34;;;16.28;82.59
12215;BME280;6170;42.206;24.142;2023-05-22T03:30:36;98480.97;;;16.31;81.91
12215;BME280;6170;42.206;24.142;2023-05-22T03:33:03;98500.28;;;16.56;81.77
12215;BME280;6170;42.206;24.142;2023-05-22T03:35:30;98474.16;;;16.45;82.12
12215;BME280;6170;42.206;24.142;2023-05-22T03:37:57;98475.84;;;16.51;81.74
12215;BME280;6170;42.206;24.142;2023-05-22T03:40:24;98473.66;;;16.31;82.27
12215;BME280;6170;42.206;24.142;2023-05-22T03:42:50;98472.09;;;16.35;81.98
12215;BME280;6170;42.206;24.142;2023-05-22T03:45:17;98463.81;;;16.25;82.13
12215;BME280;6170;42.206;24.142;2023-05-22T03:47:46;98466.28;;;16.27;82.20
12215;BME280;6170;42.206;24.142;2023-05-22T03:50:13;98468.09;;;16.21;82.97
12215;BME280;6170;42.206;24.142;2023-05-22T03:52:39;98471.53;;;16.33;81.80
12215;BME280;6170;42.206;24.142;2023-05-22T03:55:07;98482.91;;;16.52;81.26
12215;BME280;6170;42.206;24.142;2023-05-22T03:57:34;98484.53;;;16.53;81.37
12215;BME280;6170;42.206;24.142;2023-05-22T04:00:01;98486.44;;;16.36;82.08
12215;BME280;6170;42.206;24.142;2023-05-22T04:02:34;98491.44;;;16.44;82.37
12215;BME280;6170;42.206;24.142;2023-05-22T04:05:06;98497.25;;;16.69;81.34
12215;BME280;6170;42.206;24.142;2023-05-22T04:07:33;98480.56;;;16.94;82.20
12215;BME280;6170;42.206;24.142;2023-05-22T04:10:01;98494.19;;;17.21;80.70
12215;BME280;6170;42.206;24.142;2023-05-22T04:12:28;98484.47;;;17.25;80.96
12215;BME280;6170;42.206;24.142;2023-05-22T04:14:55;98472.22;;;17.44;79.22
12215;BME280;6170;42.206;24.142;2023-05-22T04:17:22;98485.81;;;17.66;78.37
12215;BME280;6170;42.206;24.142;2023-05-22T04:19:49;98477.63;;;17.39;79.14
12215;BME280;6170;42.206;24.142;2023-05-22T04:22:17;98485.00;;;17.48;78.66
12215;BME280;6170;42.206;24.142;2023-05-22T04:24:44;98483.78;;;17.34;79.14
12215;BME280;6170;42.206;24.142;2023-05-22T04:27:13;98486.22;;;17.14;79.04
12215;BME280;6170;42.206;24.142;2023-05-22T04:29:40;98462.44;;;17.16;78.76
12215;BME280;6170;42.206;24.142;2023-05-22T04:32:09;98473.50;;;17.36;77.98
12215;BME280;6170;42.206;24.142;2023-05-22T04:34:36;98503.47;;;18.27;76.27
12215;BME280;6170;42.206;24.142;2023-05-22T04:37:03;98478.84;;;18.70;73.92
12215;BME280;6170;42.206;24.142;2023-05-22T04:39:31;98476.03;;;19.02;72.69
12215;BME280;6170;42.206;24.142;2023-05-22T04:41:58;98475.16;;;19.49;72.51
12215;BME280;6170;42.206;24.142;2023-05-22T04:44:30;98471.19;;;20.12;71.17
12215;BME280;6170;42.206;24.142;2023-05-22T04:46:59;98479.38;;;20.22;69.75
12215;BME280;6170;42.206;24.142;2023-05-22T04:49:26;98460.00;;;19.68;70.43
12215;BME280;6170;42.206;24.142;2023-05-22T04:51:53;98483.38;;;19.74;70.01
12215;BME280;6170;42.206;24.142;2023-05-22T04:54:20;98491.25;;;19.70;70.31
12215;BME280;6170;42.206;24.142;2023-05-22T04:56:48;98485.22;;;19.53;70.90
12215;BME280;6170;42.206;24.142;2023-05-22T04:59:16;98492.88;;;19.71;70.68
12215;BME280;6170;42.206;24.142;2023-05-22T05:01:43;98488.63;;;19.23;71.88
12215;BME280;6170;42.206;24.142;2023-05-22T05:04:12;98465.75;;;19.09;71.83
12215;BME280;6170;42.206;24.142;2023-05-22T05:06:39;98486.13;;;19.89;71.39
12215;BME280;6170;42.206;24.142;2023-05-22T05:09:06;98493.50;;;20.24;70.22
12215;BME280;6170;42.206;24.142;2023-05-22T05:11:33;98493.22;;;20.10;70.23
12215;BME280;6170;42.206;24.142;2023-05-22T05:14:01;98522.13;;;20.52;69.39
12215;BME280;6170;42.206;24.142;2023-05-22T05:16:28;98475.53;;;20.18;69.26
12215;BME280;6170;42.206;24.142;2023-05-22T05:18:55;98493.81;;;20.48;69.08
12215;BME280;6170;42.206;24.142;2023-05-22T05:21:22;98494.28;;;20.09;69.44
12215;BME280;6170;42.206;24.142;2023-05-22T05:23:52;98490.47;;;20.00;71.00
12215;BME280;6170;42.206;24.142;2023-05-22T05:26:19;98542.13;;;19.85;72.25
12215;BME280;6170;42.206;24.142;2023-05-22T05:28:48;98479.09;;;19.21;71.59
12215;BME280;6170;42.206;24.142;2023-05-22T05:31:17;98492.06;;;19.66;70.66
12215;BME280;6170;42.206;24.142;2023-05-22T05:33:44;98487.59;;;19.40;72.88
12215;BME280;6170;42.206;24.142;2023-05-22T05:36:11;98495.56;;;19.51;73.49
12215;BME280;6170;42.206;24.142;2023-05-22T05:38:38;98505.63;;;19.66;73.34
12215;BME280;6170;42.206;24.142;2023-05-22T05:41:05;98501.31;;;19.70;73.12
12215;BME280;6170;42.206;24.142;2023-05-22T05:43:32;98511.66;;;19.73;70.67
12215;BME280;6170;42.206;24.142;2023-05-22T05:45:59;98519.28;;;19.81;71.17
12215;BME280;6170;42.206;24.142;2023-05-22T05:48:27;98520.69;;;20.04;70.75
12215;BME280;6170;42.206;24.142;2023-05-22T05:50:54;98515.50;;;19.82;72.05
12215;BME280;6170;42.206;24.142;2023-05-22T05:53:21;98559.88;;;20.08;73.61
12215;BME280;6170;42.206;24.142;2023-05-22T05:55:48;98515.69;;;19.60;73.23
12215;BME280;6170;42.206;24.142;2023-05-22T05:58:15;98512.16;;;19.65;72.11
12215;BME280;6170;42.206;24.142;2023-05-22T06:00:42;98515.78;;;19.91;70.02
12215;BME280;6170;42.206;24.142;2023-05-22T06:03:09;98511.44;;;20.05;70.69
12215;BME280;6170;42.206;24.142;2023-05-22T06:05:37;98513.34;;;20.19;70.24
12215;BME280;6170;42.206;24.142;2023-05-22T06:08:04;98516.63;;;20.22;70.07
12215;BME280;6170;42.206;24.142;2023-05-22T06:10:33;98521.28;;;20.36;70.02
12215;BME280;6170;42.206;24.142;2023-05-22T06:13:00;98508.19;;;20.23;68.68
12215;BME280;6170;42.206;24.142;2023-05-22T06:15:27;98518.22;;;20.02;69.51
12215;BME280;6170;42.206;24.142;2023-05-22T06:17:55;98506.88;;;20.66;68.63
12215;BME280;6170;42.206;24.142;2023-05-22T06:20:22;98552.50;;;21.35;69.53
12215;BME280;6170;42.206;24.142;2023-05-22T06:22:51;98516.31;;;21.24;68.96
12215;BME280;6170;42.206;24.142;2023-05-22T06:25:18;98515.78;;;21.81;63.84
12215;BME280;6170;42.206;24.142;2023-05-22T06:27:45;98521.34;;;22.10;64.69
12215;BME280;6170;42.206;24.142;2023-05-22T06:30:12;98522.09;;;21.67;62.26
12215;BME280;6170;42.206;24.142;2023-05-22T06:32:39;98527.63;;;22.06;62.71
12215;BME280;6170;42.206;24.142;2023-05-22T06:35:07;98506.34;;;21.54;61.64
12215;BME280;6170;42.206;24.142;2023-05-22T06:37:34;98545.97;;;21.26;61.77
12215;BME280;6170;42.206;24.142;2023-05-22T06:40:05;98526.63;;;21.32;63.38
12215;BME280;6170;42.206;24.142;2023-05-22T06:42:33;98558.28;;;21.13;63.06
12215;BME280;6170;42.206;24.142;2023-05-22T06:45:00;98516.06;;;21.00;64.82
12215;BME280;6170;42.206;24.142;2023-05-22T06:47:26;98526.03;;;21.45;65.42
12215;BME280;6170;42.206;24.142;2023-05-22T06:49:53;98515.97;;;21.36;65.41
12215;BME280;6170;42.206;24.142;2023-05-22T06:52:20;98519.22;;;21.38;64.33
12215;BME280;6170;42.206;24.142;2023-05-22T06:54:47;98555.38;;;22.18;64.93
12215;BME280;6170;42.206;24.142;2023-05-22T06:57:15;98558.56;;;22.69;63.83
12215;BME280;6170;42.206;24.142;2023-05-22T06:59:42;98524.28;;;22.19;63.05
12215;BME280;6170;42.206;24.142;2023-05-22T07:02:09;98528.56;;;22.30;65.35
12215;BME280;6170;42.206;24.142;2023-05-22T07:04:36;98531.00;;;21.92;63.95
12215;BME280;6170;42.206;24.142;2023-05-22T07:07:03;98532.25;;;22.10;62.64
12215;BME280;6170;42.206;24.142;2023-05-22T07:09:30;98529.88;;;22.71;62.35
12215;BME280;6170;42.206;24.142;2023-05-22T07:11:59;98528.59;;;22.93;61.51
12215;BME280;6170;42.206;24.142;2023-05-22T07:14:27;98528.88;;;22.91;61.25
12215;BME280;6170;42.206;24.142;2023-05-22T07:16:54;98535.84;;;22.78;62.00
12215;BME280;6170;42.206;24.142;2023-05-22T07:19:21;98528.84;;;23.20;61.72
12215;BME280;6170;42.206;24.142;2023-05-22T07:21:47;98532.50;;;23.34;58.86
12215;BME280;6170;42.206;24.142;2023-05-22T07:24:14;98538.94;;;23.72;59.65
12215;BME280;6170;42.206;24.142;2023-05-22T07:26:41;98567.31;;;24.19;57.41
12215;BME280;6170;42.206;24.142;2023-05-22T07:29:11;98536.00;;;23.63;60.30
12215;BME280;6170;42.206;24.142;2023-05-22T07:31:39;98532.22;;;23.59;56.57
12215;BME280;6170;42.206;24.142;2023-05-22T07:34:06;98543.47;;;23.58;58.00
12215;BME280;6170;42.206;24.142;2023-05-22T07:36:34;98545.22;;;23.49;56.77
12215;BME280;6170;42.206;24.142;2023-05-22T07:39:01;98540.09;;;23.66;56.58
12215;BME280;6170;42.206;24.142;2023-05-22T07:41:29;98568.50;;;22.89;55.06
12215;BME280;6170;42.206;24.142;2023-05-22T07:43:56;98540.88;;;23.43;56.56
12215;BME280;6170;42.206;24.142;2023-05-22T07:46:23;98541.84;;;23.57;50.44
12215;BME280;6170;42.206;24.142;2023-05-22T07:48:51;98548.78;;;23.92;49.20
12215;BME280;6170;42.206;24.142;2023-05-22T07:51:18;98539.09;;;23.99;48.55
12215;BME280;6170;42.206;24.142;2023-05-22T07:53:45;98541.91;;;25.42;51.36
12215;BME280;6170;42.206;24.142;2023-05-22T07:56:12;98543.47;;;24.70;51.28
12215;BME280;6170;42.206;24.142;2023-05-22T07:58:38;98543.41;;;24.24;52.46
12215;BME280;6170;42.206;24.142;2023-05-22T08:01:06;98540.56;;;24.48;50.34
12215;BME280;6170;42.206;24.142;2023-05-22T08:03:33;98535.06;;;24.67;50.64
12215;BME280;6170;42.206;24.142;2023-05-22T08:06:02;98536.31;;;24.23;50.46
12215;BME280;6170;42.206;24.142;2023-05-22T08:08:29;98576.84;;;23.79;50.92
12215;BME280;6170;42.206;24.142;2023-05-22T08:10:57;98549.13;;;23.66;50.68
12215;BME280;6170;42.206;24.142;2023-05-22T08:13:24;98527.63;;;23.55;53.17
12215;BME280;6170;42.206;24.142;2023-05-22T08:15:51;98573.19;;;23.41;52.21
12215;BME280;6170;42.206;24.142;2023-05-22T08:18:18;98550.13;;;22.65;53.64
12215;BME280;6170;42.206;24.142;2023-05-22T08:20:45;98527.47;;;22.65;54.05
12215;BME280;6170;42.206;24.142;2023-05-22T08:23:13;98544.31;;;23.58;54.35
12215;BME280;6170;42.206;24.142;2023-05-22T08:25:40;98550.06;;;23.57;52.67
12215;BME280;6170;42.206;24.142;2023-05-22T08:28:08;98533.06;;;23.36;52.06
12215;BME280;6170;42.206;24.142;2023-05-22T08:30:35;98541.09;;;23.51;51.46
12215;BME280;6170;42.206;24.142;2023-05-22T08:33:02;98540.69;;;23.82;51.03
12215;BME280;6170;42.206;24.142;2023-05-22T08:35:29;98547.03;;;23.58;51.31
12215;BME280;6170;42.206;24.142;2023-05-22T08:37:56;98537.38;;;23.85;49.27
12215;BME280;6170;42.206;24.142;2023-05-22T08:40:33;98532.16;;;24.07;55.03
12215;BME280;6170;42.206;24.142;2023-05-22T08:43:00;98574.63;;;24.60;51.34
12215;BME280;6170;42.206;24.142;2023-05-22T08:45:27;98534.75;;;25.00;49.71
12215;BME280;6170;42.206;24.142;2023-05-22T08:48:02;98537.84;;;25.54;48.22
12215;BME280;6170;42.206;24.142;2023-05-22T08:50:30;98543.13;;;25.77;46.51
12215;BME280;6170;42.206;24.142;2023-05-22T08:52:59;98522.81;;;25.78;46.77
12215;BME280;6170;42.206;24.142;2023-05-22T08:55:29;98532.97;;;25.78;46.07
12215;BME280;6170;42.206;24.142;2023-05-22T08:57:56;98536.94;;;25.72;46.69
12215;BME280;6170;42.206;24.142;2023-05-22T09:00:24;98524.25;;;26.92;48.70
12215;BME280;6170;42.206;24.142;2023-05-22T09:02:51;98526.84;;;26.97;44.66
12215;BME280;6170;42.206;24.142;2023-05-22T09:05:20;98520.16;;;27.51;48.22
12215;BME280;6170;42.206;24.142;2023-05-22T09:07:51;98513.59;;;26.10;45.54
12215;BME280;6170;42.206;24.142;2023-05-22T09:10:18;98513.56;;;24.74;48.21
12215;BME280;6170;42.206;24.142;2023-05-22T09:13:03;98522.06;;;24.40;46.42
12215;BME280;6170;42.206;24.142;2023-05-22T09:15:32;98554.97;;;25.18;51.37
12215;BME280;6170;42.206;24.142;2023-05-22T09:17:59;98551.94;;;25.20;48.91
12215;BME280;6170;42.206;24.142;2023-05-22T09:20:28;98516.59;;;24.91;48.90
12215;BME280;6170;42.206;24.142;2023-05-22T09:22:54;98520.06;;;24.08;48.99
12215;BME280;6170;42.206;24.142;2023-05-22T09:25:22;98524.69;;;24.31;52.76
12215;BME280;6170;42.206;24.142;2023-05-22T09:27:49;98515.59;;;23.98;53.46
12215;BME280;6170;42.206;24.142;2023-05-22T09:30:18;98520.69;;;23.15;51.45
12215;BME280;6170;42.206;24.142;2023-05-22T09:32:47;98523.25;;;23.06;51.69
12215;BME280;6170;42.206;24.142;2023-05-22T09:35:14;98517.97;;;23.15;51.32
12215;BME280;6170;42.206;24.142;2023-05-22T09:37:41;98522.91;;;24.03;51.27
12215;BME280;6170;42.206;24.142;2023-05-22T09:40:10;98514.97;;;23.83;50.84
12215;BME280;6170;42.206;24.142;2023-05-22T09:42:42;98518.66;;;23.54;51.80
12215;BME280;6170;42.206;24.142;2023-05-22T09:45:10;98531.66;;;23.81;52.95
12215;BME280;6170;42.206;24.142;2023-05-22T09:47:38;98516.31;;;23.19;51.90
12215;BME280;6170;42.206;24.142;2023-05-22T09:50:06;98519.00;;;23.43;50.73
12215;BME280;6170;42.206;24.142;2023-05-22T09:52:36;98551.06;;;23.85;51.24
12215;BME280;6170;42.206;24.142;2023-05-22T09:55:04;98562.50;;;24.29;51.50
12215;BME280;6170;42.206;24.142;2023-05-22T09:57:39;98505.75;;;24.99;49.10
12215;BME280;6170;42.206;24.142;2023-05-22T10:00:08;98514.69;;;25.46;49.26
12215;BME280;6170;42.206;24.142;2023-05-22T10:02:43;98481.25;;;24.57;47.12
12215;BME280;6170;42.206;24.142;2023-05-22T10:05:11;98531.94;;;24.41;49.99
12215;BME280;6170;42.206;24.142;2023-05-22T10:07:47;98496.78;;;24.61;50.66
12215;BME280;6170;42.206;24.142;2023-05-22T10:10:16;98506.88;;;24.80;49.05
12215;BME280;6170;42.206;24.142;2023-05-22T10:12:50;98499.13;;;24.87;52.78
12215;BME280;6170;42.206;24.142;2023-05-22T10:15:18;98507.19;;;24.78;48.26
12215;BME280;6170;42.206;24.142;2023-05-22T10:17:48;98489.88;;;25.78;46.43
12215;BME280;6170;42.206;24.142;2023-05-22T10:20:15;98499.41;;;26.53;51.72
12215;BME280;6170;42.206;24.142;2023-05-22T10:22:42;98497.56;;;26.70;50.27
12215;BME280;6170;42.206;24.142;2023-05-22T10:25:09;98491.63;;;26.99;47.74
12215;BME280;6170;42.206;24.142;2023-05-22T10:27:37;98497.34;;;26.58;50.08
12215;BME280;6170;42.206;24.142;2023-05-22T10:30:17;98512.13;;;25.77;50.58
12215;BME280;6170;42.206;24.142;2023-05-22T10:32:49;98490.31;;;25.31;48.84
12215;BME280;6170;42.206;24.142;2023-05-22T10:35:20;98487.31;;;24.22;47.37
12215;BME280;6170;42.206;24.142;2023-05-22T10:37:49;98465.31;;;24.08;47.86
12215;BME280;6170;42.206;24.142;2023-05-22T10:40:21;98519.47;;;24.81;50.12
12215;BME280;6170;42.206;24.142;2023-05-22T10:42:56;98470.16;;;24.48;50.26
12215;BME280;6170;42.206;24.142;2023-05-22T10:45:25;98483.84;;;23.97;49.52
12215;BME280;6170;42.206;24.142;2023-05-22T10:48:05;98481.47;;;24.09;50.71
12215;BME280;6170;42.206;24.142;2023-05-22T10:50:32;98483.09;;;24.29;49.72
12215;BME280;6170;42.206;24.142;2023-05-22T10:53:18;98487.31;;;24.22;51.01
12215;BME280;6170;42.206;24.142;2023-05-22T10:55:46;98480.88;;;24.31;51.43
12215;BME280;6170;42.206;24.142;2023-05-22T10:58:13;98488.59;;;24.29;50.94
12215;BME280;6170;42.206;24.142;2023-05-22T11:00:39;98478.81;;;24.88;49.93
12215;BME280;6170;42.206;24.142;2023-05-22T11:03:08;98468.47;;;25.26;50.60
12215;BME280;6170;42.206;24.142;2023-05-22T11:05:36;98466.28;;;25.77;48.65
12215;BME280;6170;42.206;24.142;2023-05-22T11:11:12;98467.38;;;25.13;48.62
12215;BME280;6170;42.206;24.142;2023-05-22T11:13:39;98455.09;;;24.65;48.09
12215;BME280;6170;42.206;24.142;2023-05-22T11:16:08;98417.66;;;24.60;49.19
12215;BME280;6170;42.206;24.142;2023-05-22T11:18:37;98492.31;;;24.98;49.30
12215;BME280;6170;42.206;24.142;2023-05-22T11:21:08;98445.09;;;25.01;48.51
12215;BME280;6170;42.206;24.142;2023-05-22T11:23:36;98451.59;;;25.05;47.97
12215;BME280;6170;42.206;24.142;2023-05-22T11:26:19;98445.53;;;25.08;48.60
12215;BME280;6170;42.206;24.142;2023-05-22T11:28:49;98424.06;;;24.83;49.19
12215;BME280;6170;42.206;24.142;2023-05-22T11:31:18;98453.03;;;24.56;48.73
12215;BME280;6170;42.206;24.142;2023-05-22T11:33:50;98437.16;;;25.40;49.76
12215;BME280;6170;42.206;24.142;2023-05-22T11:36:17;98436.94;;;25.50;52.77
12215;BME280;6170;42.206;24.142;2023-05-22T11:38:44;98422.84;;;24.75;47.19
12215;BME280;6170;42.206;24.142;2023-05-22T11:41:11;98434.72;;;24.84;51.56
12215;BME280;6170;42.206;24.142;2023-05-22T11:43:41;98442.09;;;24.43;50.06
12215;BME280;6170;42.206;24.142;2023-05-22T11:46:09;98435.41;;;23.79;50.71
12215;BME280;6170;42.206;24.142;2023-05-22T11:48:39;98483.91;;;24.30;51.56
12215;BME280;6170;42.206;24.142;2023-05-22T11:51:08;98432.38;;;23.81;54.82
12215;BME280;6170;42.206;24.142;2023-05-22T11:53:35;98434.25;;;23.43;51.74
12215;BME280;6170;42.206;24.142;2023-05-22T11:56:03;98457.22;;;23.42;51.60
12215;BME280;6170;42.206;24.142;2023-05-22T11:58:30;98459.69;;;23.19;51.99
12215;BME280;6170;42.206;24.142;2023-05-22T12:00:59;98445.41;;;23.04;52.74
12215;BME280;6170;42.206;24.142;2023-05-22T12:03:26;98437.69;;;22.87;55.40
12215;BME280;6170;42.206;24.142;2023-05-22T12:05:53;98460.41;;;23.06;55.35
12215;BME280;6170;42.206;24.142;2023-05-22T12:08:23;98473.03;;;22.45;53.76
12215;BME280;6170;42.206;24.142;2023-05-22T12:10:50;98459.38;;;22.45;55.93
12215;BME280;6170;42.206;24.142;2023-05-22T12:13:25;98487.91;;;22.28;57.38
12215;BME280;6170;42.206;24.142;2023-05-22T12:15:55;98466.50;;;22.12;61.29
12215;BME280;6170;42.206;24.142;2023-05-22T12:18:22;98490.06;;;21.92;62.65
12215;BME280;6170;42.206;24.142;2023-05-22T12:20:53;98477.38;;;20.98;63.71
12215;BME280;6170;42.206;24.142;2023-05-22T12:23:23;98479.31;;;20.93;65.25
12215;BME280;6170;42.206;24.142;2023-05-22T12:25:57;98466.44;;;21.19;64.59
12215;BME280;6170;42.206;24.142;2023-05-22T12:28:25;98478.50;;;21.62;62.08
12215;BME280;6170;42.206;24.142;2023-05-22T12:30:53;98457.28;;;22.03;61.06
12215;BME280;6170;42.206;24.142;2023-05-22T12:33:24;98445.50;;;22.07;60.28
12215;BME280;6170;42.206;24.142;2023-05-22T12:35:52;98461.09;;;22.02;59.79
12215;BME280;6170;42.206;24.142;2023-05-22T12:38:24;98432.94;;;21.67;57.84
12215;BME280;6170;42.206;24.142;2023-05-22T12:40:51;98511.16;;;22.21;58.22
12215;BME280;6170;42.206;24.142;2023-05-22T12:43:20;98477.41;;;22.12;58.85
12215;BME280;6170;42.206;24.142;2023-05-22T12:45:47;98480.97;;;22.07;58.66
12215;BME280;6170;42.206;24.142;2023-05-22T12:48:14;98477.38;;;22.46;58.40
12215;BME280;6170;42.206;24.142;2023-05-22T12:50:42;98482.06;;;22.40;59.13
12215;BME280;6170;42.206;24.142;2023-05-22T12:53:09;98478.88;;;22.62;59.07
12215;BME280;6170;42.206;24.142;2023-05-22T12:55:38;98477.47;;;22.69;57.21
12215;BME280;6170;42.206;24.142;2023-05-22T12:58:05;98473.34;;;22.72;56.99
12215;BME280;6170;42.206;24.142;2023-05-22T13:00:33;98469.13;;;23.08;57.61
12215;BME280;6170;42.206;24.142;2023-05-22T13:03:00;98475.84;;;23.40;56.57
12215;BME280;6170;42.206;24.142;2023-05-22T13:05:27;98470.63;;;23.19;56.09
12215;BME280;6170;42.206;24.142;2023-05-22T13:07:54;98472.16;;;23.31;55.74
12215;BME280;6170;42.206;24.142;2023-05-22T13:10:21;98471.38;;;23.25;57.06